Kearny, NJ (07032)

6:38 PM EDT on July 29, 2016 (GMT -0400)
HSNN4 - WXLINK | | Change Station

Elev 46 ft 40.75 °N, 74.15 °W | Updated 6 minutes ago

Scattered Clouds
Scattered Clouds
84.9 °F
Feels Like 90 °F
N
1.0
Wind Variable Wind from ENE
Gusts 5.0 mph

Today
High -- | Low -- °F
--% Chance of Precip.
Yesterday
High -- | Low -- °F
Precip. -- in
Pressure 29.84 in
Visibility 10.0 miles
Clouds Few 4000 ft
Scattered Clouds 5500 ft
Heat Index 90 °F
Dew Point 71 °F
Humidity 63%
Rainfall 0.94 in
Snow Depth Not available.
5:50 AM 8:14 PM
Waning Crescent, 18% visible
METAR KEWR 292151Z 17008KT 10SM FEW040 SCT055 29/21 A2984 RMK AO2 SLP104 TCU DSNT NW T02890206
Pressure 29.84 in
Visibility 10.0 miles
Clouds Few 4000 ft
Scattered Clouds 5500 ft
Heat Index 90 °F
Dew Point 71 °F
Humidity 63%
Rainfall 0.94 in
Snow Depth Not available.
5:50 AM 8:14 PM
Waning Crescent, 18% visible
METAR KEWR 292151Z 17008KT 10SM FEW040 SCT055 29/21 A2984 RMK AO2 SLP104 TCU DSNT NW T02890206

10-Day Weather Forecast

Almanac

Astronomy

Jul. 29, 2016 Rise Set
Actual Time
Civil Twilight
Nautical Twilight
Astronomical Twilight
Moon
Length of Visible Light
Length of Day
Tomorrow will be .
, % of the Moon is Illuminated

Today's Extremes

State Highs State Lows

Community

WunderPhotos

Upload Photos

1,928,436 photos uploaded!

WunderBlog® & News

Nearby

Air Quality

  Air Quality AQ Index Pollutant
Not available.

Snow Depth

Station Depth Elevation

Earthquake Activity

City Distance Mag. Time & Date
Minimum magnitude displayed is 2.5.

Coastal Water Temperatures

Place Temperature

Stations

Nearby Weather Stations

Station Location Temp. Windchill Dew Point Humidity Wind Precip. Elev Updated Type
                   

Watches & Warnings

There are currently no watches in effect.